Time;durP1;ratioP1;P1;durP2;ratioP2;P2;SDS_P1;SDS_P2;PMS_P1;PMS_P2;Temp;Humidity;BMP_temperature;BMP_pressure;BME280_temperature;BME280_humidity;BME280_pressure;Samples;Min_cycle;Max_cycle;Signal;HPM_P1;HPM_P2
2022/12/18 00:00:40;;;;;;;31.25;10.50;;;-3.80;99.90;;;;;;4972895;28;20381;-83
2022/12/18 00:03:56;;;;;;;;;;;;;;;;;;;;;
2022/12/18 00:07:20;;;;;;;34.33;11.82;;;-3.80;99.90;;;;;;5055621;28;20607;-85
2022/12/18 00:10:30;;;;;;;;;;;;;;;;;;;;;
2022/12/18 00:13:50;;;;;;;35.08;10.98;;;-3.70;99.90;;;;;;5013667;28;20133;-82
2022/12/18 00:16:58;;;;;;;34.35;12.95;;;-3.70;99.90;;;;;;5012189;28;20542;-84
2022/12/18 00:20:26;;;;;;;;;;;;;;;;;;;;;
2022/12/18 00:23:50;;;;;;;42.78;13.95;;;-3.80;99.90;;;;;;5013511;28;20112;-84
2022/12/18 00:27:20;;;;;;;39.70;13.88;;;-3.70;99.90;;;;;;5006880;28;20058;-84
2022/12/18 00:30:51;;;;;;;41.73;13.03;;;-3.80;99.90;;;;;;5013561;28;20068;-84
2022/12/18 00:34:16;;;;;;;36.92;10.77;;;-3.80;99.90;;;;;;5013060;28;20685;-84
2022/12/18 00:37:34;;;;;;;;;;;;;;;;;;;;;
2022/12/18 00:40:54;;;;;;;35.80;13.32;;;-3.80;99.90;;;;;;5023263;28;20048;-81
2022/12/18 00:44:12;;;;;;;;;;;;;;;;;;;;;
2022/12/18 00:47:39;;;;;;;;;;;;;;;;;;;;;
2022/12/18 00:50:43;;;;;;;38.47;11.98;;;-3.80;99.90;;;;;;5053495;28;20052;-84
2022/12/18 00:53:44;;;;;;;26.08;9.55;;;-3.80;99.90;;;;;;5053804;28;20124;-84
2022/12/18 00:56:56;;;;;;;;;;;;;;;;;;;;;
2022/12/18 01:00:14;;;;;;;26.88;10.13;;;-3.90;99.90;;;;;;5050327;28;20045;-83
2022/12/18 01:03:30;;;;;;;33.80;9.93;;;-3.90;99.90;;;;;;5052430;28;20048;-84
2022/12/18 01:07:01;;;;;;;;;;;;;;;;;;;;;
2022/12/18 01:10:02;;;;;;;43.58;13.05;;;-3.90;99.90;;;;;;5048104;28;20482;-82
2022/12/18 01:13:10;;;;;;;43.35;11.82;;;-4.00;99.90;;;;;;5047177;28;20145;-85
2022/12/18 01:15:54;;;;;;;32.13;10.05;;;-4.00;99.90;;;;;;5052103;28;20087;-85
2022/12/18 01:18:55;;;;;;;38.25;13.35;;;-4.00;99.90;;;;;;5053585;28;20041;-84
2022/12/18 01:22:20;;;;;;;;;;;;;;;;;;;;;
2022/12/18 01:25:32;;;;;;;;;;;;;;;;;;;;;
2022/12/18 01:28:59;;;;;;;30.30;10.57;;;-4.20;99.90;;;;;;5010990;28;20054;-85
2022/12/18 01:32:24;;;;;;;;;;;;;;;;;;;;;
2022/12/18 01:35:26;;;;;;;33.78;10.18;;;-4.20;99.90;;;;;;5012411;28;20474;-84
2022/12/18 01:39:04;;;;;;;;;;;;;;;;;;;;;
2022/12/18 01:42:50;;;;;;;;;;;;;;;;;;;;;
2022/12/18 01:46:05;;;;;;;31.73;10.57;;;-4.30;99.90;;;;;;4934325;29;20052;-85
2022/12/18 01:49:04;;;;;;;29.75;9.70;;;-4.40;99.90;;;;;;4956527;28;20121;-84
2022/12/18 01:52:27;;;;;;;;;;;;;;;;;;;;;
2022/12/18 01:55:36;;;;;;;29.48;10.93;;;-4.50;99.90;;;;;;4870571;29;20056;-86
2022/12/18 01:58:42;;;;;;;;;;;;;;;;;;;;;
2022/12/18 02:02:03;;;;;;;24.88;8.80;;;-4.50;99.90;;;;;;4933835;29;20060;-84
2022/12/18 02:05:04;;;;;;;37.78;10.80;;;-4.60;99.90;;;;;;4933687;29;20047;-85
2022/12/18 02:08:28;;;;;;;;;;;;;;;;;;;;;
2022/12/18 02:12:34;;;;;;;;;;;;;;;;;;;;;
2022/12/18 02:15:44;;;;;;;;;;;;;;;;;;;;;
2022/12/18 02:19:10;;;;;;;34.50;11.23;;;-4.80;99.90;;;;;;4875950;29;20056;-84
2022/12/18 02:22:24;;;;;;;36.60;13.05;;;-5.00;99.90;;;;;;4907261;29;20135;-85
2022/12/18 02:25:31;;;;;;;34.10;10.82;;;-5.00;99.90;;;;;;4952887;29;20055;-85
2022/12/18 02:28:40;;;;;;;31.27;10.18;;;-5.00;99.90;;;;;;4926885;29;20095;-83
2022/12/18 02:31:54;;;;;;;31.50;9.40;;;-5.00;99.90;;;;;;4952430;29;20536;-84
2022/12/18 02:35:14;;;;;;;;;;;;;;;;;;;;;
2022/12/18 02:38:42;;;;;;;;;;;;;;;;;;;;;
2022/12/18 02:42:02;;;;;;;26.48;9.55;;;-5.20;99.90;;;;;;4950194;29;20059;-84
2022/12/18 02:45:10;;;;;;;;;;;;;;;;;;;;;
2022/12/18 02:48:21;;;;;;;27.98;8.85;;;-5.20;99.90;;;;;;4966911;28;20125;-84
2022/12/18 02:51:44;;;;;;;;;;;;;;;;;;;;;
2022/12/18 02:55:48;;;;;;;;;;;;;;;;;;;;;
2022/12/18 02:59:32;;;;;;;;;;;;;;;;;;;;;
2022/12/18 03:02:48;;;;;;;22.13;7.55;;;-5.30;99.90;;;;;;5017398;28;20508;-82
2022/12/18 03:06:13;;;;;;;24.50;9.90;;;-5.40;99.90;;;;;;4926634;29;20052;-82
2022/12/18 03:09:26;;;;;;;25.70;8.63;;;-5.40;99.90;;;;;;4931689;29;20127;-84
2022/12/18 03:12:48;;;;;;;34.67;9.68;;;-5.40;99.90;;;;;;4927797;28;20044;-85
2022/12/18 03:15:54;;;;;;;22.50;8.60;;;-5.40;99.90;;;;;;4933123;29;20047;-82
2022/12/18 03:18:58;;;;;;;31.05;10.32;;;-5.40;99.90;;;;;;4913572;29;20426;-82
2022/12/18 03:22:35;;;;;;;33.30;9.88;;;-5.40;99.90;;;;;;4913729;29;20052;-83
2022/12/18 03:25:54;;;;;;;;;;;;;;;;;;;;;
2022/12/18 03:29:20;;;;;;;23.48;7.57;;;-5.40;99.90;;;;;;4904435;29;20075;-83
2022/12/18 03:32:20;;;;;;;28.45;8.65;;;-5.40;99.90;;;;;;4895403;29;20053;-83
2022/12/18 03:35:40;;;;;;;32.38;10.00;;;-5.40;99.90;;;;;;4896556;28;20041;-84
2022/12/18 03:38:47;;;;;;;22.55;8.20;;;-5.40;99.90;;;;;;4951769;28;20058;-84
2022/12/18 03:41:48;;;;;;;24.15;8.15;;;-5.30;99.90;;;;;;4917088;29;20075;-84
2022/12/18 03:45:16;;;;;;;36.03;9.45;;;-5.30;99.90;;;;;;5000924;28;20041;-85
2022/12/18 03:48:38;;;;;;;;;;;;;;;;;;;;;
2022/12/18 03:52:00;;;;;;;28.10;9.77;;;-5.30;99.90;;;;;;5055695;28;20053;-85
2022/12/18 03:55:34;;;;;;;;;;;;;;;;;;;;;
2022/12/18 03:59:14;;;;;;;;;;;;;;;;;;;;;
2022/12/18 04:02:22;;;;;;;;;;;;;;;;;;;;;
2022/12/18 04:05:44;;;;;;;;;;;;;;;;;;;;;
2022/12/18 04:09:00;;;;;;;29.05;9.50;;;-5.50;99.90;;;;;;5055151;28;20532;-85
2022/12/18 04:12:36;;;;;;;32.13;9.52;;;-5.50;99.90;;;;;;5050251;28;20045;-85
2022/12/18 04:16:02;;;;;;;;;;;;;;;;;;;;;
2022/12/18 04:19:19;;;;;;;;;;;;;;;;;;;;;
2022/12/18 04:22:45;;;;;;;;;;;;;;;;;;;;;
2022/12/18 04:26:02;;;;;;;34.17;10.88;;;-5.70;99.90;;;;;;5054355;28;20521;-84
2022/12/18 04:29:20;;;;;;;34.42;10.27;;;-5.60;99.90;;;;;;5011738;28;20056;-83
2022/12/18 04:32:59;;;;;;;31.90;11.73;;;-5.70;99.90;;;;;;5054956;28;20049;-83
2022/12/18 04:36:36;;;;;;;;;;;;;;;;;;;;;
2022/12/18 04:40:08;;;;;;;;;;;;;;;;;;;;;
2022/12/18 04:43:32;;;;;;;38.83;11.95;;;-5.70;99.90;;;;;;5054221;28;20052;-84
2022/12/18 04:46:58;;;;;;;;;;;;;;;;;;;;;
2022/12/18 04:50:28;;;;;;;;;;;;;;;;;;;;;
2022/12/18 04:54:02;;;;;;;29.58;9.52;;;-5.80;99.90;;;;;;5054508;28;20040;-83
2022/12/18 04:57:32;;;;;;;;;;;;;;;;;;;;;
2022/12/18 05:00:40;;;;;;;27.42;9.60;;;-5.90;99.90;;;;;;5046838;28;20048;-86
2022/12/18 05:03:08;;;;;;;28.98;9.68;;;-5.90;99.90;;;;;;5054268;28;20067;-84
2022/12/18 05:06:34;;;;;;;30.77;9.63;;;-5.90;99.90;;;;;;5054445;28;20045;-85
2022/12/18 05:09:42;;;;;;;33.88;11.15;;;-6.00;99.90;;;;;;5051258;28;20049;-84
2022/12/18 05:13:06;;;;;;;27.10;9.70;;;-6.00;99.90;;;;;;5046644;28;20091;-82
2022/12/18 05:16:08;;;;;;;33.30;10.05;;;-6.00;99.90;;;;;;5031285;28;20497;-85
2022/12/18 05:19:13;;;;;;;29.67;11.05;;;-6.10;99.90;;;;;;5054115;28;20102;-82
2022/12/18 05:22:38;;;;;;;;;;;;;;;;;;;;;
2022/12/18 05:25:42;;;;;;;;;;;;;;;;;;;;;
2022/12/18 05:28:58;;;;;;;25.73;8.70;;;-6.10;99.90;;;;;;5053961;28;20057;-83
2022/12/18 05:32:28;;;;;;;;;;;;;;;;;;;;;
2022/12/18 05:35:48;;;;;;;30.10;9.85;;;-6.20;99.90;;;;;;5053787;28;20045;-82
2022/12/18 05:39:06;;;;;;;;;;;;;;;;;;;;;
2022/12/18 05:42:22;;;;;;;29.00;9.70;;;-6.30;99.90;;;;;;5010405;28;20410;-82
2022/12/18 05:45:35;;;;;;;31.48;10.13;;;-6.30;99.90;;;;;;5011409;28;20096;-84
2022/12/18 05:49:03;;;;;;;;;;;;;;;;;;;;;
2022/12/18 05:52:04;;;;;;;31.33;11.48;;;-6.30;99.90;;;;;;5010885;28;20056;-84
2022/12/18 05:55:28;;;;;;;;;;;;;;;;;;;;;
2022/12/18 05:58:38;;;;;;;28.08;9.95;;;-6.40;99.90;;;;;;5009346;28;20054;-83
2022/12/18 06:01:50;;;;;;;22.92;8.38;;;-6.40;99.90;;;;;;5010457;28;20049;-83
2022/12/18 06:04:57;;;;;;;22.42;7.45;;;-6.40;99.90;;;;;;5011486;28;20054;-84
2022/12/18 06:08:24;;;;;;;;;;;;;;;;;;;;;
2022/12/18 06:11:38;;;;;;;;;;;;;;;;;;;;;
2022/12/18 06:14:12;;;;;;;24.90;8.48;;;-6.40;99.90;;;;;;5052517;28;20052;-85
2022/12/18 06:17:06;;;;;;;19.38;7.72;;;-6.50;99.90;;;;;;5035247;28;20123;-83
2022/12/18 06:20:20;;;;;;;21.98;8.52;;;-6.50;99.90;;;;;;5052396;28;20045;-83
2022/12/18 06:23:45;;;;;;;;;;;;;;;;;;;;;
2022/12/18 06:27:00;;;;;;;27.65;10.70;;;-6.60;99.90;;;;;;5049728;28;20156;-83
2022/12/18 06:30:19;;;;;;;;;;;;;;;;;;;;;
2022/12/18 06:33:41;;;;;;;;;;;;;;;;;;;;;
2022/12/18 06:36:56;;;;;;;27.98;9.27;;;-6.80;99.90;;;;;;5001364;28;20049;-82
2022/12/18 06:40:20;;;;;;;;;;;;;;;;;;;;;
2022/12/18 06:43:11;;;;;;;25.83;8.57;;;-6.70;99.90;;;;;;5017520;28;20049;-83
2022/12/18 06:46:18;;;;;;;25.95;9.30;;;-6.70;99.90;;;;;;5051826;28;20123;-82
2022/12/18 06:49:36;;;;;;;;;;;;;;;;;;;;;
2022/12/18 06:52:40;;;;;;;23.30;8.70;;;-6.70;99.90;;;;;;5052479;28;20131;-83
2022/12/18 06:55:44;;;;;;;19.65;7.60;;;-6.70;99.90;;;;;;5001170;28;20041;-83
2022/12/18 06:59:00;;;;;;;25.75;6.65;;;-6.70;99.90;;;;;;5035225;28;20048;-82
2022/12/18 07:02:18;;;;;;;18.00;5.47;;;-6.80;99.90;;;;;;5010750;28;20412;-85
2022/12/18 07:05:36;;;;;;;16.20;6.65;;;-6.70;99.90;;;;;;5005890;28;20074;-83
2022/12/18 07:08:58;;;;;;;;;;;;;;;;;;;;;
2022/12/18 07:12:09;;;;;;;21.20;7.90;;;-6.70;99.90;;;;;;5010622;28;20463;-83
2022/12/18 07:15:00;;;;;;;19.95;7.10;;;-6.80;99.90;;;;;;5005704;28;20034;-83
2022/12/18 07:18:08;;;;;;;;;;;;;;;;;;;;;
2022/12/18 07:21:15;;;;;;;17.63;7.22;;;-6.80;99.90;;;;;;5014642;28;20049;-83
2022/12/18 07:24:19;;;;;;;16.40;5.90;;;-6.80;99.90;;;;;;5014347;28;20434;-83
2022/12/18 07:27:12;;;;;;;16.10;5.82;;;-6.70;99.90;;;;;;5008405;28;20112;-83
2022/12/18 07:30:10;;;;;;;15.48;5.57;;;-6.70;99.90;;;;;;5014443;28;20050;-81
2022/12/18 07:33:02;;;;;;;14.13;4.82;;;-6.70;99.90;;;;;;5000852;28;20045;-82
2022/12/18 07:36:00;;;;;;;18.52;5.80;;;-6.70;99.90;;;;;;5018355;28;20072;-84
2022/12/18 07:39:03;;;;;;;;;;;;;;;;;;;;;
2022/12/18 07:41:48;;;;;;;;;;;;;;;;;;;;;
2022/12/18 07:45:00;;;;;;;13.98;5.05;;;-6.60;99.90;;;;;;5035913;28;20045;-82
2022/12/18 07:48:06;;;;;;;;;;;;;;;;;;;;;
2022/12/18 07:51:12;;;;;;;19.95;5.75;;;-6.60;99.90;;;;;;5035739;28;20084;-83
2022/12/18 07:54:02;;;;;;;9.93;4.90;;;-6.60;99.90;;;;;;5036373;28;20445;-81
2022/12/18 07:56:50;;;;;;;15.05;5.50;;;-6.60;99.90;;;;;;5032435;28;20545;-82
2022/12/18 07:59:46;;;;;;;12.90;5.20;;;-6.50;99.90;;;;;;5035475;28;20041;-82
2022/12/18 08:02:32;;;;;;;15.43;5.93;;;-6.60;99.90;;;;;;5017941;28;20076;-81
2022/12/18 08:05:34;;;;;;;13.77;5.70;;;-6.60;99.90;;;;;;5016076;28;20057;-82
2022/12/18 08:08:32;;;;;;;19.27;5.88;;;-6.60;99.90;;;;;;5052425;28;20049;-81
2022/12/18 08:11:33;;;;;;;18.95;6.55;;;-6.60;99.90;;;;;;5034986;28;20045;-83
2022/12/18 08:14:37;;;;;;;16.08;5.90;;;-6.50;99.90;;;;;;5035221;28;20441;-82
2022/12/18 08:17:08;;;;;;;21.05;6.53;;;-6.50;99.90;;;;;;5014330;28;20129;-82
2022/12/18 08:19:49;;;;;;;20.52;7.05;;;-6.50;99.90;;;;;;5050017;28;20053;-80
2022/12/18 08:22:47;;;;;;;23.02;7.22;;;-6.50;99.90;;;;;;5035013;28;20387;-83
2022/12/18 08:25:50;;;;;;;16.40;6.40;;;-6.50;99.90;;;;;;5034545;28;20462;-84
2022/12/18 08:28:55;;;;;;;20.30;7.63;;;-6.50;99.90;;;;;;5035094;28;20049;-81
2022/12/18 08:32:03;;;;;;;20.13;7.18;;;-6.50;99.90;;;;;;5045471;28;20387;-81
2022/12/18 08:35:04;;;;;;;16.13;6.85;;;-6.40;99.90;;;;;;5053953;28;20501;-81
2022/12/18 08:37:48;;;;;;;16.80;6.10;;;-6.40;99.90;;;;;;5036920;28;20382;-82
2022/12/18 08:40:50;;;;;;;17.38;6.78;;;-6.40;99.90;;;;;;5054105;28;20091;-83
2022/12/18 08:47:05;;;;;;;;;;;;;;;;;;;;;
2022/12/18 08:49:49;;;;;;;18.10;6.47;;;-6.20;99.90;;;;;;5053940;28;20037;-84
2022/12/18 08:52:43;;;;;;;18.05;6.78;;;-6.20;99.90;;;;;;5019308;28;20502;-81
2022/12/18 08:55:40;;;;;;;13.85;5.38;;;-6.10;99.90;;;;;;5054169;28;20497;-81
2022/12/18 08:58:46;;;;;;;17.65;6.18;;;-6.10;99.90;;;;;;5052542;28;20080;-82
2022/12/18 09:01:48;;;;;;;15.25;5.15;;;-6.00;99.90;;;;;;5025156;28;20486;-82
2022/12/18 09:04:46;;;;;;;;;;;;;;;;;;;;;
2022/12/18 09:07:42;;;;;;;;;;;;;;;;;;;;;
2022/12/18 09:10:42;;;;;;;;;;;;;;;;;;;;;
2022/12/18 09:13:46;;;;;;;14.15;5.95;;;-5.80;99.90;;;;;;5069551;28;20045;-81
2022/12/18 09:16:47;;;;;;;13.85;4.82;;;-5.70;99.90;;;;;;5053710;28;20033;-82
2022/12/18 09:19:47;;;;;;;14.52;5.43;;;-5.60;99.90;;;;;;5048179;28;20049;-82
2022/12/18 09:22:40;;;;;;;13.88;5.30;;;-5.60;99.90;;;;;;5036016;28;20085;-82
2022/12/18 09:25:35;;;;;;;;;;;;;;;;;;;;;
2022/12/18 09:28:47;;;;;;;12.15;5.10;;;-5.40;99.90;;;;;;5035807;28;20057;-82
2022/12/18 09:31:38;;;;;;;13.18;5.43;;;-5.90;99.90;;;;;;5051964;28;20053;-82
2022/12/18 09:34:34;;;;;;;15.13;5.80;;;-5.20;99.90;;;;;;5050749;28;20413;-81
2022/12/18 09:37:38;;;;;;;15.63;7.07;;;-5.20;99.90;;;;;;5052104;28;20295;-80
2022/12/18 09:40:47;;;;;;;13.25;5.20;;;-5.10;99.90;;;;;;5048449;28;20075;-83
2022/12/18 09:43:58;;;;;;;13.70;5.63;;;-5.00;99.90;;;;;;5050623;28;20128;-83
2022/12/18 09:47:22;;;;;;;9.98;4.75;;;-4.80;99.90;;;;;;5053276;28;20080;-82
2022/12/18 09:50:22;;;;;;;11.65;4.38;;;-4.70;99.90;;;;;;5053012;28;20048;-82
2022/12/18 09:53:17;;;;;;;10.77;4.68;;;-4.60;99.90;;;;;;5045308;28;20429;-83
2022/12/18 09:56:25;;;;;;;13.45;4.97;;;-4.60;99.90;;;;;;5051135;28;20056;-83
2022/12/18 09:59:22;;;;;;;;;;;;;;;;;;;;;
2022/12/18 10:02:22;;;;;;;11.00;4.78;;;-4.50;99.90;;;;;;5052186;28;20065;-83
2022/12/18 10:05:26;;;;;;;11.60;4.32;;;-4.50;99.90;;;;;;5052771;28;20041;-80
2022/12/18 10:08:31;;;;;;;10.23;3.97;;;-4.40;99.90;;;;;;5053094;28;20116;-83
2022/12/18 10:11:30;;;;;;;14.52;5.32;;;-4.30;99.90;;;;;;5027387;28;20067;-82
2022/12/18 10:14:32;;;;;;;13.07;4.53;;;-4.30;99.90;;;;;;5052997;28;20083;-82
2022/12/18 10:17:41;;;;;;;10.90;3.92;;;-4.20;99.90;;;;;;5051751;28;20049;-81
2022/12/18 10:20:48;;;;;;;8.45;2.92;;;-4.10;99.90;;;;;;5053017;28;20047;-83
2022/12/18 10:23:56;;;;;;;9.20;3.78;;;-4.00;99.90;;;;;;5051490;28;20048;-81
2022/12/18 10:26:58;;;;;;;8.27;3.95;;;-3.90;99.90;;;;;;5048508;28;20045;-83
2022/12/18 10:30:16;;;;;;;13.00;4.85;;;-3.70;99.90;;;;;;5049151;28;20124;-81
2022/12/18 10:33:21;;;;;;;12.35;4.28;;;-3.60;99.90;;;;;;5048267;28;20413;-81
2022/12/18 10:36:18;;;;;;;7.22;3.45;;;-3.50;99.90;;;;;;5051961;28;20053;-80
2022/12/18 10:39:46;;;;;;;9.68;4.43;;;-3.40;99.90;;;;;;5052228;28;20045;-82
2022/12/18 10:42:30;;;;;;;11.23;4.88;;;-3.30;99.90;;;;;;5047925;28;20048;-81
2022/12/18 10:45:33;;;;;;;;;;;;;;;;;;;;;
2022/12/18 10:48:42;;;;;;;;;;;;;;;;;;;;;
2022/12/18 10:51:54;;;;;;;8.80;4.35;;;-3.30;99.90;;;;;;5052470;28;20437;-81
2022/12/18 10:55:18;;;;;;;12.02;3.72;;;-3.20;99.90;;;;;;5045209;28;20033;-84
2022/12/18 10:58:36;;;;;;;;;;;;;;;;;;;;;
2022/12/18 11:01:59;;;;;;;;;;;;;;;;;;;;;
2022/12/18 11:05:23;;;;;;;8.38;3.47;;;-3.10;99.90;;;;;;4994122;28;20491;-83
2022/12/18 11:08:34;;;;;;;8.15;4.03;;;-3.30;99.90;;;;;;5006494;28;20541;-84
2022/12/18 11:12:06;;;;;;;;;;;;;;;;;;;;;
2022/12/18 11:15:17;;;;;;;10.80;5.10;;;-3.00;99.90;;;;;;5010089;28;20054;-82
2022/12/18 11:18:18;;;;;;;12.32;5.90;;;-2.90;99.90;;;;;;5010737;28;20042;-82
2022/12/18 11:21:12;;;;;;;9.98;3.88;;;-2.90;99.90;;;;;;5008836;28;20434;-82
2022/12/18 11:24:56;;;;;;;;;;;;;;;;;;;;;
2022/12/18 11:28:01;;;;;;;9.10;4.72;;;-2.80;99.90;;;;;;5149669;27;20054;-84
2022/12/18 11:31:01;;;;;;;6.55;4.13;;;-2.70;99.90;;;;;;5151490;27;20043;-85
2022/12/18 11:34:15;;;;;;;;;;;;;;;;;;;;;
2022/12/18 11:37:34;;;;;;;;;;;;;;;;;;;;;
2022/12/18 11:40:37;;;;;;;9.85;3.92;;;-2.60;99.90;;;;;;5143716;27;20054;-82
2022/12/18 11:44:04;;;;;;;8.02;3.85;;;-2.60;99.90;;;;;;5149489;27;20046;-82
2022/12/18 11:47:30;;;;;;;;;;;;;;;;;;;;;
2022/12/18 11:50:48;;;;;;;;;;;;;;;;;;;;;
2022/12/18 11:53:38;;;;;;;8.02;3.35;;;-2.40;99.90;;;;;;5137469;27;20047;-83
2022/12/18 11:56:38;;;;;;;6.18;3.38;;;-2.40;99.90;;;;;;5132646;27;20377;-83
2022/12/18 11:59:38;;;;;;;8.57;3.30;;;-2.40;99.90;;;;;;5108455;27;20523;-85
2022/12/18 12:02:56;;;;;;;10.90;3.95;;;-2.30;99.90;;;;;;5150800;27;20047;-84
2022/12/18 12:06:16;;;;;;;;;;;;;;;;;;;;;
2022/12/18 12:09:39;;;;;;;9.00;3.47;;;-2.30;99.90;;;;;;5147919;27;20047;-85
2022/12/18 12:13:13;;;;;;;5.45;2.75;;;-2.20;99.90;;;;;;5131534;27;20080;-80
2022/12/18 12:16:16;;;;;;;8.48;2.85;;;-2.20;99.90;;;;;;5150406;27;20047;-82
2022/12/18 12:19:02;;;;;;;7.30;3.05;;;-2.20;99.90;;;;;;5147352;27;20045;-82
2022/12/18 12:22:16;;;;;;;8.07;3.38;;;-2.20;99.90;;;;;;5146739;27;20049;-82
2022/12/18 12:25:41;;;;;;;7.03;2.63;;;-2.20;99.90;;;;;;5107752;28;20044;-84
2022/12/18 12:28:42;;;;;;;5.18;2.83;;;-2.10;99.90;;;;;;5108789;28;20389;-83
2022/12/18 12:31:45;;;;;;;5.88;2.67;;;-2.10;99.90;;;;;;5089955;28;20177;-83
2022/12/18 12:34:58;;;;;;;4.53;2.03;;;-2.10;99.90;;;;;;5076233;28;20044;-82
2022/12/18 12:38:06;;;;;;;;;;;;;;;;;;;;;
2022/12/18 12:44:53;;;;;;;;;;;;;;;;;;;;;
2022/12/18 12:47:38;;;;;;;;;;;-2.00;99.90;;;;;;5089702;28;20052;-85
2022/12/18 12:50:19;;;;;;;5.68;2.53;;;-1.90;99.90;;;;;;5076172;28;20391;-82
2022/12/18 12:53:01;;;;;;;7.18;3.20;;;-1.90;99.90;;;;;;5094957;28;20045;-83
2022/12/18 12:56:04;;;;;;;;;;;;;;;;;;;;;
2022/12/18 12:59:32;;;;;;;7.15;3.05;;;-1.80;99.90;;;;;;5090914;28;20043;-82
2022/12/18 13:02:52;;;;;;;8.38;2.83;;;-1.80;99.90;;;;;;5093738;28;20098;-84
2022/12/18 13:05:53;;;;;;;6.43;2.83;;;-1.80;99.90;;;;;;5089975;28;20044;-84
2022/12/18 13:08:54;;;;;;;7.45;2.83;;;-1.80;99.90;;;;;;5094749;28;20047;-82
2022/12/18 13:14:45;;;;;;;4.28;2.05;;;-1.80;99.90;;;;;;5085475;28;20497;-83
2022/12/18 13:17:34;;;;;;;6.38;2.20;;;-1.70;99.90;;;;;;5093617;28;20055;-82
2022/12/18 13:20:40;;;;;;;6.05;2.40;;;-1.70;99.90;;;;;;5094110;28;20123;-85
2022/12/18 13:23:57;;;;;;;7.25;3.05;;;-1.70;99.90;;;;;;5098353;28;20063;-83
2022/12/18 13:26:46;;;;;;;4.03;2.08;;;-1.60;99.90;;;;;;5083126;28;20040;-85
2022/12/18 13:29:51;;;;;;;6.25;2.63;;;-1.60;99.90;;;;;;5073268;28;20095;-80
2022/12/18 13:32:50;;;;;;;3.88;1.83;;;-1.60;99.90;;;;;;5092857;28;20048;-83
2022/12/18 13:35:23;;;;;;;6.20;2.65;;;-1.60;99.90;;;;;;5095934;28;20043;-86
2022/12/18 13:38:38;;;;;;;4.47;2.08;;;-1.50;99.90;;;;;;5094365;28;20040;-82
2022/12/18 13:41:49;;;;;;;3.00;1.58;;;-1.50;99.90;;;;;;5074611;28;20052;-82
2022/12/18 13:44:34;;;;;;;4.55;1.92;;;-1.50;99.90;;;;;;5097863;28;20028;-81
2022/12/18 13:47:03;;;;;;;6.18;2.10;;;-1.50;99.90;;;;;;5078656;28;20544;-82
2022/12/18 13:49:35;;;;;;;7.43;2.38;;;-1.50;99.90;;;;;;5113002;28;20043;-81
2022/12/18 13:52:22;;;;;;;3.42;1.73;;;-1.50;99.90;;;;;;5095795;28;20116;-81
2022/12/18 13:55:02;;;;;;;4.32;1.70;;;-1.60;99.90;;;;;;5100789;28;20036;-81
2022/12/18 13:57:42;;;;;;;3.83;1.90;;;-1.80;99.90;;;;;;5094116;28;20071;-83
2022/12/18 14:00:22;;;;;;;4.47;2.00;;;-2.20;99.90;;;;;;5109824;28;20045;-83
2022/12/18 14:03:17;;;;;;;4.63;2.17;;;-1.50;99.90;;;;;;5107966;28;20036;-82
2022/12/18 14:06:18;;;;;;;6.05;2.17;;;-1.50;99.90;;;;;;5086781;28;20044;-83
2022/12/18 14:09:13;;;;;;;;;;;;;;;;;;;;;
2022/12/18 14:12:56;;;;;;;5.45;2.10;;;-1.50;99.90;;;;;;5097272;28;19920;-84
2022/12/18 14:15:10;;;;;;;10.63;2.15;;;-1.50;99.90;;;;;;5093268;28;20405;-84
2022/12/18 14:18:15;;;;;;;5.60;1.75;;;-1.50;99.90;;;;;;5112717;28;20051;-83
2022/12/18 14:21:09;;;;;;;3.95;1.80;;;-1.60;99.90;;;;;;5068661;28;20028;-85
2022/12/18 14:24:30;;;;;;;5.20;2.00;;;-1.60;99.90;;;;;;5087048;28;20043;-83
2022/12/18 14:27:33;;;;;;;4.82;1.73;;;-1.60;99.90;;;;;;5123275;27;20472;-83
2022/12/18 14:30:54;;;;;;;;;;;;;;;;;;;;;
2022/12/18 14:33:55;;;;;;;6.55;2.95;;;-1.70;99.90;;;;;;5113543;27;20051;-84
2022/12/18 14:36:29;;;;;;;10.15;3.17;;;-1.70;99.90;;;;;;5096729;27;20046;-82
2022/12/18 14:39:01;;;;;;;6.45;3.58;;;-1.70;99.90;;;;;;5114781;27;20039;-81
2022/12/18 14:41:32;;;;;;;6.43;3.13;;;-1.70;99.90;;;;;;5115366;27;20040;-82
2022/12/18 14:44:13;;;;;;;10.60;3.38;;;-1.80;99.90;;;;;;5115148;27;20042;-82
2022/12/18 14:46:47;;;;;;;6.57;2.72;;;-1.80;99.90;;;;;;5134026;27;20372;-82
2022/12/18 14:49:28;;;;;;;8.25;2.70;;;-1.80;99.90;;;;;;5133581;27;20667;-83
2022/12/18 14:52:01;;;;;;;6.55;2.42;;;-1.80;99.90;;;;;;5112296;28;20042;-85
2022/12/18 14:54:31;;;;;;;7.18;2.67;;;-1.90;99.90;;;;;;5113095;28;20047;-84
2022/12/18 14:57:23;;;;;;;7.43;3.20;;;-1.90;99.90;;;;;;5112587;28;20047;-84
2022/12/18 15:00:17;;;;;;;8.93;3.63;;;-1.90;99.90;;;;;;5113270;28;20039;-84
2022/12/18 15:02:51;;;;;;;8.38;3.28;;;-2.00;99.90;;;;;;5111420;28;20127;-82
2022/12/18 15:05:21;;;;;;;8.85;3.80;;;-2.00;99.90;;;;;;5109195;28;20051;-82
2022/12/18 15:07:52;;;;;;;8.90;3.60;;;-2.00;99.90;;;;;;5109050;28;20153;-82
2022/12/18 15:10:26;;;;;;;6.68;3.25;;;-2.00;99.90;;;;;;5113384;28;20506;-83
2022/12/18 15:12:55;;;;;;;11.25;4.38;;;-2.00;99.90;;;;;;5105447;28;20399;-84
2022/12/18 15:15:40;;;;;;;6.70;3.42;;;-2.00;99.90;;;;;;5112900;28;20134;-84
2022/12/18 15:18:10;;;;;;;10.40;3.53;;;-2.10;99.90;;;;;;5113087;28;20075;-84
2022/12/18 15:21:01;;;;;;;9.88;4.47;;;-2.10;99.90;;;;;;5111901;28;20091;-83
2022/12/18 15:23:52;;;;;;;8.68;4.85;;;-2.10;99.90;;;;;;5111379;28;20434;-84
2022/12/18 15:26:21;;;;;;;7.78;3.88;;;-2.10;99.90;;;;;;5092418;28;20093;-84
2022/12/18 15:28:58;;;;;;;11.60;4.57;;;-2.10;99.90;;;;;;5091892;28;20044;-83
2022/12/18 15:31:31;;;;;;;12.05;4.78;;;-2.10;99.90;;;;;;5092087;28;20044;-82
2022/12/18 15:34:20;;;;;;;12.43;4.43;;;-2.10;99.90;;;;;;5071101;28;20396;-81
2022/12/18 15:37:24;;;;;;;;;;;;;;;;;;;;;
2022/12/18 15:40:06;;;;;;;7.88;4.32;;;-2.20;99.90;;;;;;5076367;28;20044;-83
2022/12/18 15:46:30;;;;;;;6.95;4.15;;;-2.30;99.90;;;;;;5089552;28;20051;-82
2022/12/18 15:49:42;;;;;;;;;;;;;;;;;;;;;
2022/12/18 15:52:46;;;;;;;7.75;4.13;;;-2.30;99.90;;;;;;5090756;28;20048;-85
2022/12/18 15:59:34;;;;;;;8.70;4.38;;;-2.40;99.90;;;;;;5091378;28;20060;-85
2022/12/18 16:02:30;;;;;;;;;;;-2.30;99.90;;;;;;5064097;28;20048;-83
2022/12/18 16:05:28;;;;;;;;;;;-2.40;99.90;;;;;;5066340;28;19969;-84
2022/12/18 16:08:37;;;;;;;9.18;3.80;;;-2.40;99.90;;;;;;5092172;28;19920;-83
2022/12/18 16:11:39;;;;;;;10.70;4.63;;;-2.40;99.90;;;;;;5088296;28;20098;-84
2022/12/18 16:14:47;;;;;;;13.23;4.15;;;-2.40;99.90;;;;;;5096166;28;20044;-82
2022/12/18 16:17:38;;;;;;;10.45;4.47;;;-2.40;99.90;;;;;;5088183;28;20074;-82
2022/12/18 16:20:58;;;;;;;7.78;4.10;;;-2.40;99.90;;;;;;5069205;28;20127;-86
2022/12/18 16:23:40;;;;;;;9.25;4.22;;;-2.40;99.90;;;;;;5090022;28;20040;-84
2022/12/18 16:26:17;;;;;;;9.57;3.75;;;-2.40;99.90;;;;;;5115545;28;20046;-84
2022/12/18 16:28:44;;;;;;;8.43;3.58;;;-2.40;99.90;;;;;;5135132;27;20078;-82
2022/12/18 16:31:11;;;;;;;6.22;3.03;;;-2.40;99.90;;;;;;5136056;27;20580;-83
2022/12/18 16:33:37;;;;;;;9.20;3.53;;;-2.50;99.90;;;;;;5101754;27;20499;-83
2022/12/18 16:36:05;;;;;;;7.20;3.70;;;-2.40;99.90;;;;;;5118399;27;20446;-83
2022/12/18 16:38:31;;;;;;;7.35;3.30;;;-2.40;99.90;;;;;;5136747;27;20043;-82
2022/12/18 16:43:44;;;;;;;6.63;3.08;;;-2.40;99.90;;;;;;5136204;27;20043;-84
2022/12/18 16:46:10;;;;;;;5.03;2.80;;;-2.40;99.90;;;;;;5117929;27;20071;-83
2022/12/18 16:48:37;;;;;;;6.78;2.70;;;-2.40;99.90;;;;;;5136618;27;20110;-82
2022/12/18 16:51:04;;;;;;;7.25;3.15;;;-2.40;99.90;;;;;;5136596;27;20094;-81
2022/12/18 16:53:33;;;;;;;9.40;2.75;;;-2.40;99.90;;;;;;5134786;27;20031;-81
2022/12/18 16:55:59;;;;;;;7.28;2.97;;;-2.40;99.90;;;;;;5117958;27;20039;-83
2022/12/18 16:58:26;;;;;;;7.50;3.08;;;-2.40;99.90;;;;;;5136148;27;20096;-82
2022/12/18 17:00:55;;;;;;;3.58;2.20;;;-2.30;99.90;;;;;;5136592;27;20118;-84
2022/12/18 17:03:22;;;;;;;8.32;3.35;;;-2.40;99.90;;;;;;5128519;27;20039;-82
2022/12/18 17:05:48;;;;;;;6.00;2.88;;;-1.20;99.90;;;;;;5136195;27;20035;-81
2022/12/18 17:08:15;;;;;;;9.30;3.50;;;-2.30;99.90;;;;;;5136193;27;20058;-83
2022/12/18 17:10:41;;;;;;;5.05;2.80;;;-2.30;99.90;;;;;;5135972;27;20039;-84
2022/12/18 17:13:08;;;;;;;5.60;2.83;;;-2.30;99.90;;;;;;5134921;27;20043;-82
2022/12/18 17:15:35;;;;;;;7.03;3.35;;;-2.20;99.90;;;;;;5117624;27;20031;-82
2022/12/18 17:18:02;;;;;;;7.78;3.10;;;-2.20;99.90;;;;;;5117181;27;20035;-82
2022/12/18 17:20:29;;;;;;;5.78;2.95;;;-2.20;99.90;;;;;;5135754;27;20035;-82
2022/12/18 17:22:57;;;;;;;5.18;2.40;;;-2.20;99.90;;;;;;5133060;27;20498;-82
2022/12/18 17:25:26;;;;;;;5.47;3.03;;;-2.20;99.90;;;;;;5135289;27;20054;-81
2022/12/18 17:27:53;;;;;;;8.00;3.35;;;-2.10;99.90;;;;;;5133850;27;20054;-83
2022/12/18 17:30:22;;;;;;;8.50;3.85;;;-2.10;99.90;;;;;;5108636;27;20035;-81
2022/12/18 17:32:51;;;;;;;6.53;3.10;;;-2.10;99.90;;;;;;5135282;27;20048;-80
2022/12/18 17:35:18;;;;;;;8.25;3.90;;;-2.10;99.90;;;;;;5117512;27;20050;-82
2022/12/18 17:37:47;;;;;;;7.05;3.00;;;-1.90;99.90;;;;;;5117912;27;20081;-81
2022/12/18 17:40:15;;;;;;;7.13;3.05;;;-2.00;99.90;;;;;;5132974;27;20051;-83
2022/12/18 17:42:43;;;;;;;6.53;3.10;;;-2.00;99.90;;;;;;5128360;27;20110;-80
2022/12/18 17:45:12;;;;;;;5.47;2.97;;;-2.00;99.90;;;;;;5100907;27;20082;-82
2022/12/18 17:47:39;;;;;;;6.82;2.95;;;-1.20;99.90;;;;;;5136869;27;20038;-83
2022/12/18 17:50:08;;;;;;;7.05;3.45;;;-1.90;99.90;;;;;;5103253;27;20099;-83
2022/12/18 17:52:35;;;;;;;6.70;2.70;;;-1.90;99.90;;;;;;5113282;27;20379;-85
2022/12/18 17:55:02;;;;;;;4.13;2.13;;;-1.90;99.90;;;;;;5116750;27;20069;-83